KJWG

Details ICAO KJWG
Name WATONGA RGNL
Region United States
Timezone America/Chicago (UTC-6.0)
Plans Departing 0
Arriving 2
Stats Elevation 1,548 ft / 472 m (AMSL)
Location 35.864691° -98.420753°
Runways 1
Magnetic Variation 4.284° E
Sunrise 2017-12-15 13:38:11 UTC / 2017-12-15 07:38:11 Local
Sunset 2017-12-15 23:22:32 UTC / 2017-12-15 17:22:32 Local
Advertisement - Login to hide

Runways

ID Width Length Bearing (true) Bearing (mag) Surface Threshold Offset Overrun Length
17 60 ft / 18 m 4,012 ft / 1,223 m 179.97° 175.69° Asphalt 0 ft / 0 m 0 ft / 0 m
35 60 ft / 18 m 4,012 ft / 1,223 m 359.97° 355.69° Asphalt 0 ft / 0 m 0 ft / 0 m

Map

Weather


0- 5 10 15 20 25 30 35+ Temperature / ° C

Clouds and Precipitation
Forecast for 2017-12-15 18:00 UTC. Updated an hour ago

Ground ~20,000 ft ~40,000 ft Winds

METAR

KJWG 151415Z AUTO 28004KT 10SM CLR M04/M04 A3029 RMK AO2 T10401044

TAF

Not found

Frequencies

Recorded 134.17 MHz AWOS 3
Approach 120.52 MHz VANCE APP/DEP
Unicom 122.80 MHz CTAF/UNICOM
Warning: Do not use this data for real-world aviation or navigation. No guarantee of current accuracy is given.